createdAt,value
2023-07-05T00:00:10.446Z,100338.84
2023-07-05T00:03:14.935Z,100323.41
2023-07-05T00:06:19.885Z,100333.91
2023-07-05T00:09:22.213Z,100333.81
2023-07-05T00:12:24.464Z,100337.63
2023-07-05T00:15:28.025Z,100334.31
2023-07-05T00:18:33.370Z,100341.94
2023-07-05T00:21:36.153Z,100346.19
2023-07-05T00:24:43.543Z,100348.13
2023-07-05T00:27:48.891Z,100332.06
2023-07-05T00:30:51.396Z,100333.19
2023-07-05T00:33:53.703Z,100332.66
2023-07-05T00:37:00.697Z,100334.13
2023-07-05T00:40:03.939Z,100328.38
2023-07-05T00:43:11.062Z,100335.56
2023-07-05T00:46:28.294Z,100338.94
2023-07-05T00:49:38.460Z,100349.75
2023-07-05T00:52:40.808Z,100349.50
2023-07-05T00:55:56.413Z,100335.75
2023-07-05T00:59:00.037Z,100337.66
2023-07-05T01:02:03.966Z,100324.97
2023-07-05T01:05:08.838Z,100321.41
2023-07-05T01:08:13.404Z,100311.50
2023-07-05T01:11:25.159Z,100332.72
2023-07-05T01:14:27.412Z,100328.00
2023-07-05T01:17:50.978Z,100333.81
2023-07-05T01:20:53.302Z,100323.03
2023-07-05T01:24:31.637Z,100333.47
2023-07-05T01:28:02.723Z,100326.34
2023-07-05T01:31:45.410Z,100315.88
2023-07-05T01:35:18.217Z,100308.75
2023-07-05T01:38:20.569Z,100319.56
2023-07-05T01:41:23.899Z,100319.88
2023-07-05T01:44:29.005Z,100290.72
2023-07-05T01:48:22.371Z,100312.47
2023-07-05T01:51:29.547Z,100309.16
2023-07-05T01:55:05.281Z,100320.22
2023-07-05T01:58:16.059Z,100314.47
2023-07-05T02:01:22.683Z,100318.56
2023-07-05T02:04:27.597Z,100318.84
2023-07-05T02:07:32.068Z,100320.53
2023-07-05T02:10:34.755Z,100313.97
2023-07-05T02:13:37.186Z,100318.41
2023-07-05T02:16:40.239Z,100322.78
2023-07-05T02:19:42.532Z,100306.75
2023-07-05T02:22:46.968Z,100322.78
2023-07-05T02:25:53.262Z,100323.94
2023-07-05T02:28:58.190Z,100323.38
2023-07-05T02:32:01.427Z,100328.09
2023-07-05T02:35:06.444Z,100308.53
2023-07-05T02:38:08.755Z,100318.41
2023-07-05T02:41:15.897Z,100300.69
2023-07-05T02:44:22.993Z,100307.31
2023-07-05T02:47:25.429Z,100303.72
2023-07-05T02:50:30.145Z,100317.88
2023-07-05T02:53:37.198Z,100306.88
2023-07-05T02:56:44.244Z,100310.25
2023-07-05T02:59:46.666Z,100299.72
2023-07-05T03:02:52.755Z,100306.88
2023-07-05T03:06:00.314Z,100308.84
2023-07-05T03:09:04.825Z,100302.50
2023-07-05T03:12:08.290Z,100311.00
2023-07-05T03:15:13.869Z,100318.19
2023-07-05T03:18:24.730Z,100314.56
2023-07-05T03:21:29.435Z,100308.75
2023-07-05T03:24:33.987Z,100303.22
2023-07-05T03:27:39.058Z,100307.09
2023-07-05T03:30:44.349Z,100311.22
2023-07-05T03:33:56.860Z,100311.19
2023-07-05T03:37:03.932Z,100321.41
2023-07-05T03:40:09.582Z,100291.34
2023-07-05T03:43:12.957Z,100312.28
2023-07-05T03:46:20.138Z,100317.19
2023-07-05T03:49:22.513Z,100310.56
2023-07-05T03:52:24.966Z,100322.13
2023-07-05T03:55:29.571Z,100318.53
2023-07-05T03:58:35.258Z,100317.94
2023-07-05T04:01:40.191Z,100310.19
2023-07-05T04:04:45.621Z,100312.91
2023-07-05T04:07:50.221Z,100311.50
2023-07-05T04:10:55.261Z,100317.56
2023-07-05T04:13:58.109Z,100314.19
2023-07-05T04:17:02.634Z,100306.41
2023-07-05T04:20:10.744Z,100301.63
2023-07-05T04:23:13.126Z,100317.81
2023-07-05T04:26:23.668Z,100318.00
2023-07-05T04:29:26.021Z,100324.25
2023-07-05T04:32:28.482Z,100325.22
2023-07-05T04:35:34.610Z,100324.50
2023-07-05T04:38:39.274Z,100329.06
2023-07-05T04:41:41.703Z,100334.72
2023-07-05T04:44:46.440Z,100328.56
2023-07-05T04:47:51.061Z,100329.19
2023-07-05T04:50:56.910Z,100342.47
2023-07-05T04:53:59.625Z,100328.09
2023-07-05T04:57:01.926Z,100328.09
2023-07-05T05:00:04.706Z,100328.44
2023-07-05T05:03:09.389Z,100324.78
2023-07-05T05:06:11.991Z,100319.75
2023-07-05T05:09:16.648Z,100337.03
2023-07-05T05:12:18.979Z,100319.97
2023-07-05T05:15:21.403Z,100341.63
2023-07-05T05:18:29.494Z,100340.53
2023-07-05T05:21:31.817Z,100341.25
2023-07-05T05:24:34.184Z,100340.84
2023-07-05T05:27:36.610Z,100329.06
2023-07-05T05:30:41.949Z,100335.63
2023-07-05T05:33:45.531Z,100339.75
2023-07-05T05:36:50.169Z,100345.84
2023-07-05T05:39:52.440Z,100338.06
2023-07-05T05:42:57.441Z,100340.09
2023-07-05T05:45:59.769Z,100338.69
2023-07-05T05:49:06.723Z,100332.91
2023-07-05T05:52:09.042Z,100322.63
2023-07-05T05:55:13.792Z,100329.78
2023-07-05T05:58:16.053Z,100326.63
2023-07-05T06:01:21.305Z,100327.66
2023-07-05T06:04:23.643Z,100319.03
2023-07-05T06:07:31.074Z,100318.22
2023-07-05T06:10:33.457Z,100318.03
2023-07-05T06:13:38.349Z,100321.47
2023-07-05T06:16:40.650Z,100316.22
2023-07-05T06:19:45.500Z,100309.69
2023-07-05T06:22:47.684Z,100312.31
2023-07-05T06:25:53.344Z,100310.16
2023-07-05T06:29:01.256Z,100294.94
2023-07-05T06:32:06.283Z,100305.75
2023-07-05T06:35:08.752Z,100295.94
2023-07-05T06:38:11.014Z,100302.47
2023-07-05T06:41:13.312Z,100300.56
2023-07-05T06:44:15.619Z,100295.66
2023-07-05T06:47:17.995Z,100295.78
2023-07-05T06:50:30.363Z,100286.75
2023-07-05T06:53:48.086Z,100292.72
2023-07-05T06:56:54.008Z,100302.09
2023-07-05T06:59:58.752Z,100293.19
2023-07-05T07:03:03.937Z,100299.63
2023-07-05T07:06:11.503Z,100297.53
2023-07-05T07:09:13.947Z,100296.94
2023-07-05T07:12:16.263Z,100291.75
2023-07-05T07:15:18.520Z,100293.28
2023-07-05T07:18:25.583Z,100281.16
2023-07-05T07:21:28.285Z,100285.31
2023-07-05T07:24:35.537Z,100286.84
2023-07-05T07:27:40.450Z,100279.69
2023-07-05T07:30:45.262Z,100278.41
2023-07-05T07:33:50.868Z,100274.06
2023-07-05T07:36:53.264Z,100288.13
2023-07-05T07:39:57.699Z,100285.53
2023-07-05T07:43:02.324Z,100277.84
2023-07-05T07:46:09.757Z,100280.03
2023-07-05T07:49:14.053Z,100278.91
2023-07-05T07:52:21.588Z,100281.41
2023-07-05T07:55:26.272Z,100279.25
2023-07-05T07:58:32.330Z,100284.84
2023-07-05T08:01:41.652Z,100284.56
2023-07-05T08:04:48.498Z,100274.63
2023-07-05T08:07:53.363Z,100267.94
2023-07-05T08:10:55.766Z,100272.41
2023-07-05T08:13:58.378Z,100268.97
2023-07-05T08:17:00.938Z,100273.31
2023-07-05T08:20:05.952Z,100271.38
2023-07-05T08:23:08.943Z,100253.34
2023-07-05T08:36:15.105Z,100257.06
2023-07-05T08:39:17.565Z,100265.41
2023-07-05T08:42:58.091Z,100251.16
2023-07-05T08:46:06.744Z,100262.91
2023-07-05T08:49:20.813Z,100258.59
2023-07-05T08:52:27.276Z,100252.91
2023-07-05T08:55:57.035Z,100260.91
2023-07-05T08:59:06.750Z,100256.53
2023-07-05T09:02:11.325Z,100240.63
2023-07-05T09:05:20.631Z,100251.03
2023-07-05T09:08:49.461Z,100243.94
2023-07-05T09:11:51.672Z,100243.56
2023-07-05T09:15:13.540Z,100242.16
2023-07-05T09:18:32.269Z,100230.56
2023-07-05T09:21:46.759Z,100251.16
2023-07-05T09:24:53.075Z,100247.56
2023-07-05T09:28:17.368Z,100238.22
2023-07-05T09:31:25.021Z,100240.03
2023-07-05T09:34:39.220Z,100238.41
2023-07-05T09:37:54.030Z,100238.88
2023-07-05T09:41:05.435Z,100242.75
2023-07-05T09:44:13.531Z,100241.06
2023-07-05T09:47:19.945Z,100236.84
2023-07-05T09:50:22.850Z,100233.47
2023-07-05T09:53:53.230Z,100238.91
2023-07-05T09:57:10.547Z,100239.13
2023-07-05T10:00:32.738Z,100233.22
2023-07-05T10:03:36.923Z,100227.03
2023-07-05T10:06:45.623Z,100231.81
2023-07-05T10:10:09.097Z,100228.06
2023-07-05T10:13:35.917Z,100223.22
2023-07-05T10:17:08.096Z,100222.53
2023-07-05T10:20:24.476Z,100226.22
2023-07-05T10:23:27.674Z,100224.16
2023-07-05T10:26:35.826Z,100210.88
2023-07-05T10:29:42.145Z,100217.13
2023-07-05T10:32:47.561Z,100208.56
2023-07-05T10:36:05.725Z,100210.25
2023-07-05T10:39:11.264Z,100211.97
2023-07-05T10:42:13.738Z,100202.53
2023-07-05T10:45:19.010Z,100193.72
2023-07-05T10:48:31.924Z,100207.03
2023-07-05T10:51:38.316Z,100200.56
2023-07-05T10:55:04.072Z,100208.53
2023-07-05T10:58:19.963Z,100193.38
2023-07-05T11:01:40.521Z,100198.84
2023-07-05T11:04:46.071Z,100193.13
2023-07-05T11:07:54.985Z,100186.19
2023-07-05T11:11:05.588Z,100169.59
2023-07-05T11:14:18.246Z,100166.16
2023-07-05T11:17:31.387Z,100178.03
2023-07-05T11:20:33.644Z,100169.75
2023-07-05T11:23:41.978Z,100170.94
2023-07-05T11:26:47.610Z,100163.81
2023-07-05T11:29:53.174Z,100172.84
2023-07-05T11:33:07.926Z,100171.13
2023-07-05T11:36:40.588Z,100164.63
2023-07-05T11:39:49.887Z,100163.16
2023-07-05T11:42:55.031Z,100158.72
2023-07-05T11:46:04.738Z,100142.66
2023-07-05T11:49:21.540Z,100147.06
2023-07-05T11:52:35.043Z,100148.59
2023-07-05T11:55:45.591Z,100146.81
2023-07-05T11:58:52.124Z,100134.69
2023-07-05T12:01:54.589Z,100125.88
2023-07-05T12:05:00.720Z,100126.16
2023-07-05T12:08:23.324Z,100119.00
2023-07-05T12:11:32.052Z,100109.72
2023-07-05T12:14:34.457Z,100111.72
2023-07-05T12:17:40.171Z,100109.56
2023-07-05T12:20:47.170Z,100114.00
2023-07-05T12:23:55.637Z,100105.09
2023-07-05T12:26:58.316Z,100100.84
2023-07-05T12:30:09.911Z,100086.25
2023-07-05T12:33:23.247Z,100083.91
2023-07-05T12:36:25.751Z,100081.53
2023-07-05T12:39:28.180Z,100084.34
2023-07-05T12:42:32.941Z,100079.47
2023-07-05T12:45:42.035Z,100073.91
2023-07-05T12:48:46.575Z,100067.38
2023-07-05T12:51:54.624Z,100061.84
2023-07-05T12:54:59.401Z,100055.78
2023-07-05T12:58:07.393Z,100054.53
2023-07-05T13:01:19.446Z,100046.00
2023-07-05T13:04:23.530Z,100034.69
2023-07-05T13:07:28.965Z,100034.69
2023-07-05T13:10:40.789Z,100030.78
2023-07-05T13:13:43.286Z,100032.75
2023-07-05T13:16:53.643Z,100022.91
2023-07-05T13:20:19.810Z,100021.88
2023-07-05T13:23:32.814Z,100016.72
2023-07-05T13:26:41.920Z,100017.25
2023-07-05T13:29:44.269Z,100018.22
2023-07-05T13:32:53.972Z,100015.41
2023-07-05T13:35:56.508Z,100010.81
2023-07-05T13:39:05.722Z,100002.38
2023-07-05T13:42:17.209Z,99995.59
2023-07-05T13:45:27.407Z,99991.97
2023-07-05T13:48:30.828Z,99978.38
2023-07-05T13:51:34.337Z,99982.97
2023-07-05T13:54:36.641Z,99970.50
2023-07-05T13:57:38.990Z,99972.91
2023-07-05T14:00:48.511Z,99960.78
2023-07-05T14:04:00.051Z,99962.44
2023-07-05T14:07:06.329Z,99957.53
2023-07-05T14:10:11.390Z,99962.13
2023-07-05T14:13:21.726Z,99958.50
2023-07-05T14:16:25.965Z,99956.06
2023-07-05T14:19:30.833Z,99933.56
2023-07-05T14:22:33.180Z,99945.06
2023-07-05T14:25:41.295Z,99954.47
2023-07-05T14:28:46.154Z,99953.28
2023-07-05T14:31:49.407Z,99943.75
2023-07-05T14:34:51.896Z,99941.66
2023-07-05T14:37:57.197Z,99948.13
2023-07-05T14:41:04.884Z,99939.59
2023-07-05T14:44:11.545Z,99935.06
2023-07-05T14:47:14.453Z,99933.47
2023-07-05T14:50:22.771Z,99931.53
2023-07-05T14:53:32.149Z,99940.94
2023-07-05T14:56:34.667Z,99943.75
2023-07-05T14:59:39.890Z,99936.41
2023-07-05T15:02:49.737Z,99944.97
2023-07-05T15:05:54.553Z,99940.56
2023-07-05T15:08:56.909Z,99937.69
2023-07-05T15:11:59.205Z,99935.91
2023-07-05T15:15:12.075Z,99935.16
2023-07-05T15:18:14.371Z,99950.47
2023-07-05T15:21:21.576Z,99938.47
2023-07-05T15:24:24.928Z,99932.97
2023-07-05T15:27:28.421Z,99928.63
2023-07-05T15:30:36.780Z,99942.06
2023-07-05T15:33:39.131Z,99928.16
2023-07-05T15:36:43.637Z,99926.38
2023-07-05T15:39:48.275Z,99932.88
2023-07-05T15:42:53.373Z,99936.13
2023-07-05T15:46:00.559Z,99928.06
2023-07-05T15:49:02.914Z,99935.06
2023-07-05T15:52:10.745Z,99930.81
2023-07-05T15:55:15.349Z,99927.25
2023-07-05T15:58:21.076Z,99926.66
2023-07-05T16:01:25.996Z,99929.34
2023-07-05T16:04:28.718Z,99928.44
2023-07-05T16:07:31.746Z,99932.44
2023-07-05T16:10:39.767Z,99925.47
2023-07-05T16:13:45.850Z,99933.34
2023-07-05T16:16:49.315Z,99915.97
2023-07-05T16:19:56.338Z,99932.81
2023-07-05T16:22:58.907Z,99920.88
2023-07-05T16:26:01.245Z,99937.31
2023-07-05T16:29:06.177Z,99928.84
2023-07-05T16:32:11.994Z,99921.84
2023-07-05T16:35:14.766Z,99916.53
2023-07-05T16:38:17.701Z,99914.69
2023-07-05T16:41:24.766Z,99919.97
2023-07-05T16:44:27.714Z,99921.50
2023-07-05T16:47:30.630Z,99909.19
2023-07-05T16:50:33.104Z,99931.38
2023-07-05T16:53:40.426Z,99919.59
2023-07-05T16:56:47.387Z,99918.78
2023-07-05T16:59:51.902Z,99916.59
2023-07-05T17:02:56.706Z,99917.66
2023-07-05T17:06:03.756Z,99911.13
2023-07-05T17:09:06.737Z,99923.16
2023-07-05T17:12:17.088Z,99928.69
2023-07-05T17:15:19.474Z,99915.44
2023-07-05T17:18:24.056Z,99929.22
2023-07-05T17:21:28.820Z,99926.66
2023-07-05T17:24:33.610Z,99922.50
2023-07-05T17:27:36.021Z,99928.47
2023-07-05T17:30:41.492Z,99938.41
2023-07-05T17:33:44.968Z,99933.09
2023-07-05T17:36:53.195Z,99931.81
2023-07-05T17:39:56.050Z,99932.63
2023-07-05T17:43:01.166Z,99928.06
2023-07-05T17:46:12.380Z,99933.56
2023-07-05T17:49:17.350Z,99936.16
2023-07-05T17:52:19.713Z,99936.75
2023-07-05T17:55:22.115Z,99943.53
2023-07-05T17:58:24.393Z,99945.44
2023-07-05T18:01:30.694Z,99948.47
2023-07-05T18:04:35.509Z,99940.22
2023-07-05T18:07:40.006Z,99959.38
2023-07-05T18:10:42.283Z,99955.66
2023-07-05T18:13:44.951Z,99956.63
2023-07-05T18:16:47.261Z,99956.50
2023-07-05T18:19:49.563Z,99963.16
2023-07-05T18:22:51.907Z,99967.59
2023-07-05T18:25:55.570Z,99976.22
2023-07-05T18:28:58.003Z,99967.94
2023-07-05T18:32:00.340Z,99978.53
2023-07-05T18:35:04.876Z,99981.47
2023-07-05T18:38:12.376Z,99973.53
2023-07-05T18:41:17.326Z,99975.75
2023-07-05T18:44:22.064Z,99982.50
2023-07-05T18:47:25.516Z,99996.78
2023-07-05T18:50:31.978Z,100004.22
2023-07-05T18:53:44.276Z,99989.19
2023-07-05T18:56:46.701Z,99996.97
2023-07-05T18:59:49.263Z,100003.28
2023-07-05T19:02:51.887Z,100014.47
2023-07-05T19:06:00.155Z,100009.47
2023-07-05T19:09:03.399Z,100010.69
2023-07-05T19:12:06.354Z,100024.44
2023-07-05T19:15:10.437Z,100026.28
2023-07-05T19:18:15.631Z,100033.03
2023-07-05T19:21:19.194Z,100033.97
2023-07-05T19:24:21.515Z,100034.59
2023-07-05T19:27:26.349Z,100042.84
2023-07-05T19:30:31.410Z,100049.94
2023-07-05T19:33:34.131Z,100049.41
2023-07-05T19:36:36.642Z,100051.28
2023-07-05T19:39:38.989Z,100051.72
2023-07-05T19:42:41.281Z,100063.09
2023-07-05T19:45:46.205Z,100053.06
2023-07-05T19:48:51.453Z,100052.53
2023-07-05T19:51:58.426Z,100061.53
2023-07-05T19:55:00.744Z,100064.03
2023-07-05T19:58:04.229Z,100066.69
2023-07-05T20:01:07.274Z,100064.31
2023-07-05T20:04:11.784Z,100057.28
2023-07-05T20:07:14.290Z,100067.69
2023-07-05T20:10:17.285Z,100058.06
2023-07-05T20:13:21.811Z,100069.09
2023-07-05T20:16:26.207Z,100074.03
2023-07-05T20:19:30.649Z,100069.44
2023-07-05T20:22:35.621Z,100067.66
2023-07-05T20:25:37.964Z,100076.38
2023-07-05T20:28:43.174Z,100078.38
2023-07-05T20:31:46.551Z,100074.09
2023-07-05T20:34:51.447Z,100079.88
2023-07-05T20:38:01.154Z,100083.31
2023-07-05T20:41:03.767Z,100073.03
2023-07-05T20:44:10.325Z,100073.84
2023-07-05T20:47:19.345Z,100079.97
2023-07-05T20:50:26.392Z,100078.66
2023-07-05T20:53:29.244Z,100079.31
2023-07-05T20:56:33.715Z,100078.66
2023-07-05T20:59:38.163Z,100090.47
2023-07-05T21:02:40.698Z,100096.59
2023-07-05T21:05:46.811Z,100091.00
2023-07-05T21:08:49.265Z,100087.38
2023-07-05T21:11:51.583Z,100089.81
2023-07-05T21:14:56.352Z,100088.03
2023-07-05T21:18:02.249Z,100084.44
2023-07-05T21:21:10.715Z,100095.09
2023-07-05T21:24:15.785Z,100097.41
2023-07-05T21:27:18.032Z,100061.81
2023-07-05T21:30:24.572Z,100095.25
2023-07-05T21:33:28.463Z,100092.66
2023-07-05T21:36:34.012Z,100087.88
2023-07-05T21:39:38.302Z,100094.81
2023-07-05T21:42:42.811Z,100100.03
2023-07-05T21:45:50.144Z,100107.25
2023-07-05T21:48:52.491Z,100099.06
2023-07-05T21:51:55.849Z,100101.38
2023-07-05T21:55:00.658Z,100096.28
2023-07-05T21:58:02.915Z,100098.91
2023-07-05T22:01:08.087Z,100093.00
2023-07-05T22:04:10.666Z,100087.44
2023-07-05T22:07:14.506Z,100093.97
2023-07-05T22:10:24.717Z,100089.53
2023-07-05T22:13:28.324Z,100079.38
2023-07-05T22:16:34.005Z,100079.56
2023-07-05T22:19:39.406Z,100077.91
2023-07-05T22:22:44.756Z,100075.06
2023-07-05T22:25:47.149Z,100076.06
2023-07-05T22:28:49.916Z,100081.63
2023-07-05T22:31:57.340Z,100082.25
2023-07-05T22:35:02.969Z,100087.00
2023-07-05T22:38:07.731Z,100089.94
2023-07-05T22:41:14.051Z,100103.84
2023-07-05T22:44:20.962Z,100105.16
2023-07-05T22:47:27.886Z,100124.88
2023-07-05T22:50:30.380Z,100119.66
2023-07-05T22:53:33.396Z,100115.25
2023-07-05T22:56:38.210Z,100123.59
2023-07-05T22:59:40.577Z,100134.75
2023-07-05T23:02:47.924Z,100120.31
2023-07-05T23:05:50.324Z,100120.75
2023-07-05T23:08:53.599Z,100123.84
2023-07-05T23:12:00.198Z,100122.22
2023-07-05T23:15:08.607Z,100119.13
2023-07-05T23:18:11.087Z,100128.94
2023-07-05T23:21:17.989Z,100123.19
2023-07-05T23:24:22.913Z,100122.22
2023-07-05T23:27:25.261Z,100115.13
2023-07-05T23:30:30.152Z,100105.81
2023-07-05T23:33:34.177Z,100120.06
2023-07-05T23:36:42.938Z,100118.09
2023-07-05T23:39:47.529Z,100117.09
2023-07-05T23:42:52.758Z,100133.34
2023-07-05T23:46:03.152Z,100127.59
2023-07-05T23:49:07.328Z,100121.22
2023-07-05T23:52:09.679Z,100136.16
2023-07-05T23:55:13.117Z,100146.59
2023-07-05T23:58:17.832Z,100154.47
